PWSweather.com
Personal Weather Stations
Station Observations
KCOFORTM15
Fort Morgan, CO

Fort Morgan, CO

Lat: 40.26, Lon: -103.784

Elevation: 4724

Station Type:

Latest ConditionsUpdated 6:09:00 AM MDT Tuesday, Jul 23, 2019
Currently Today's Max Today's Min Today's Average
Temperature 58.8°F14.9°C 67.1°F19.5°C 58.1°F14.5°C 62.8°F17.1°C
Dew Point 54.7°F12.6°C 59.0°F15.0°C 54.3°F12.4°C 56.6°F13.7°C
Winds Calm Calm 5.6 mph -9.0 kmh - - 1.5 mph 2.4 kmh
Wind Gusts -- 6.9 mph11.1 kmh - -
Humidity 86% 87% 75% 80%
Pressure 30.04 in1017.3 mb 30.07 in1018.3 mb 30.03 in1016.9 mb -
Hour Temp Dew Point Humidity Winds Wind Gusts Pressure Precip Precip Rate Daily Precip Total
06:09 AM 58.8°F14.9°C 54.7°F12.6°C 86% Calm Calm -- 30.04 in1017.3 mb 0.00 in0.0 mm 0.00 in0.0 mm 0.00 in0.0 mm
06:04 AM 58.6°F14.8°C 54.5°F12.5°C 86% 0.4 mph SE0.6 kmh SE 1.1 mph1.8 kmh 30.04 in1017.3 mb 0.00 in0.0 mm 0.00 in0.0 mm 0.00 in0.0 mm
05:59 AM 58.3°F14.6°C 54.5°F12.5°C 87% 0.2 mph S0.3 kmh S 1.1 mph1.8 kmh 30.04 in1017.3 mb 0.00 in0.0 mm 0.00 in0.0 mm 0.00 in0.0 mm
05:54 AM 58.1°F14.5°C 54.3°F12.4°C 87% Calm Calm -- 30.04 in1017.3 mb 0.00 in0.0 mm 0.00 in0.0 mm 0.00 in0.0 mm
05:49 AM 58.1°F14.5°C 54.3°F12.4°C 87% Calm Calm -- 30.04 in1017.3 mb 0.00 in0.0 mm 0.00 in0.0 mm 0.00 in0.0 mm
05:44 AM 58.3°F14.6°C 54.5°F12.5°C 87% Calm Calm -- 30.04 in1017.3 mb 0.00 in0.0 mm 0.00 in0.0 mm 0.00 in0.0 mm
05:39 AM 58.6°F14.8°C 54.5°F12.5°C 86% Calm Calm -- 30.03 in1016.9 mb 0.00 in0.0 mm 0.00 in0.0 mm 0.00 in0.0 mm
05:34 AM 58.8°F14.9°C 54.3°F12.4°C 85% 0.2 mph SSE0.3 kmh SSE 1.1 mph1.8 kmh 30.04 in1017.3 mb 0.00 in0.0 mm 0.00 in0.0 mm 0.00 in0.0 mm
05:29 AM 58.8°F14.9°C 54.3°F12.4°C 85% 1.3 mph SSE2.1 kmh SSE 2.2 mph3.5 kmh 30.04 in1017.3 mb 0.00 in0.0 mm 0.00 in0.0 mm 0.00 in0.0 mm
05:24 AM 58.6°F14.8°C 54.5°F12.5°C 86% Calm Calm -- 30.03 in1016.9 mb 0.00 in0.0 mm 0.00 in0.0 mm 0.00 in0.0 mm
05:19 AM 59.0°F15.0°C 54.5°F12.5°C 85% Calm Calm -- 30.03 in1016.9 mb 0.00 in0.0 mm 0.00 in0.0 mm 0.00 in0.0 mm
05:14 AM 59.4°F15.2°C 54.5°F12.5°C 84% Calm Calm -- 30.04 in1017.3 mb 0.00 in0.0 mm 0.00 in0.0 mm 0.00 in0.0 mm
05:09 AM 59.4°F15.2°C 54.5°F12.5°C 84% 0.4 mph S0.6 kmh S 1.1 mph1.8 kmh 30.03 in1016.9 mb 0.00 in0.0 mm 0.00 in0.0 mm 0.00 in0.0 mm
05:04 AM 59.2°F15.1°C 54.7°F12.6°C 85% 0.4 mph S0.6 kmh S 1.1 mph1.8 kmh 30.03 in1016.9 mb 0.00 in0.0 mm 0.00 in0.0 mm 0.00 in0.0 mm
04:59 AM 59.2°F15.1°C 54.7°F12.6°C 85% Calm Calm -- 30.03 in1016.9 mb 0.00 in0.0 mm 0.00 in0.0 mm 0.00 in0.0 mm
04:54 AM 59.2°F15.1°C 54.7°F12.6°C 85% Calm Calm -- 30.04 in1017.3 mb 0.00 in0.0 mm 0.00 in0.0 mm 0.00 in0.0 mm
04:49 AM 59.5°F15.3°C 54.7°F12.6°C 84% Calm Calm -- 30.03 in1016.9 mb 0.00 in0.0 mm 0.00 in0.0 mm 0.00 in0.0 mm
04:44 AM 59.7°F15.4°C 54.9°F12.7°C 84% Calm Calm -- 30.04 in1017.3 mb 0.00 in0.0 mm 0.00 in0.0 mm 0.00 in0.0 mm
04:39 AM 60.3°F15.7°C 55.0°F12.8°C 83% 0.4 mph S0.6 kmh S 1.1 mph1.8 kmh 30.04 in1017.3 mb 0.00 in0.0 mm 0.00 in0.0 mm 0.00 in0.0 mm
04:34 AM 60.6°F15.9°C 55.0°F12.8°C 82% Calm Calm -- 30.04 in1017.3 mb 0.00 in0.0 mm 0.00 in0.0 mm 0.00 in0.0 mm
04:29 AM 61.5°F16.4°C 55.2°F12.9°C 80% 0.2 mph S0.3 kmh S 1.1 mph1.8 kmh 30.03 in1016.9 mb 0.00 in0.0 mm 0.00 in0.0 mm 0.00 in0.0 mm
04:24 AM 61.5°F16.4°C 55.0°F12.8°C 79% 1.6 mph SSE2.6 kmh SSE 2.2 mph3.5 kmh 30.03 in1016.9 mb 0.00 in0.0 mm 0.00 in0.0 mm 0.00 in0.0 mm
04:19 AM 61.7°F16.5°C 55.2°F12.9°C 79% 0.2 mph SSE0.3 kmh SSE 1.1 mph1.8 kmh 30.04 in1017.3 mb 0.00 in0.0 mm 0.00 in0.0 mm 0.00 in0.0 mm
04:14 AM 61.7°F16.5°C 55.4°F13.0°C 80% 3.4 mph SE5.5 kmh SE 4.5 mph7.2 kmh 30.04 in1017.3 mb 0.00 in0.0 mm 0.00 in0.0 mm 0.00 in0.0 mm
04:09 AM 61.7°F16.5°C 55.4°F13.0°C 80% Calm Calm -- 30.03 in1016.9 mb 0.00 in0.0 mm 0.00 in0.0 mm 0.00 in0.0 mm
04:04 AM 61.7°F16.5°C 55.4°F13.0°C 80% 3.4 mph SSE5.5 kmh SSE 5.8 mph9.3 kmh 30.04 in1017.3 mb 0.00 in0.0 mm 0.00 in0.0 mm 0.00 in0.0 mm
03:59 AM 61.7°F16.5°C 55.8°F13.2°C 81% 0.9 mph SE1.4 kmh SE 1.1 mph1.8 kmh 30.04 in1017.3 mb 0.00 in0.0 mm 0.00 in0.0 mm 0.00 in0.0 mm
03:54 AM 61.7°F16.5°C 55.8°F13.2°C 81% 2.0 mph SSE3.2 kmh SSE 3.4 mph5.5 kmh 30.03 in1016.9 mb 0.00 in0.0 mm 0.00 in0.0 mm 0.00 in0.0 mm
03:49 AM 61.7°F16.5°C 56.1°F13.4°C 82% 0.4 mph SSE0.6 kmh SSE 1.1 mph1.8 kmh 30.04 in1017.3 mb 0.00 in0.0 mm 0.00 in0.0 mm 0.00 in0.0 mm
03:44 AM 61.9°F16.6°C 56.3°F13.5°C 82% 0.2 mph SE0.3 kmh SE 1.1 mph1.8 kmh 30.04 in1017.3 mb 0.00 in0.0 mm 0.00 in0.0 mm 0.00 in0.0 mm
03:39 AM 61.9°F16.6°C 55.9°F13.3°C 81% 1.8 mph S2.9 kmh S 3.4 mph5.5 kmh 30.04 in1017.3 mb 0.00 in0.0 mm 0.00 in0.0 mm 0.00 in0.0 mm
03:34 AM 61.9°F16.6°C 56.3°F13.5°C 82% 1.6 mph S2.6 kmh S 3.4 mph5.5 kmh 30.04 in1017.3 mb 0.00 in0.0 mm 0.00 in0.0 mm 0.00 in0.0 mm
03:29 AM 61.7°F16.5°C 56.1°F13.4°C 82% Calm Calm -- 30.03 in1016.9 mb 0.00 in0.0 mm 0.00 in0.0 mm 0.00 in0.0 mm
03:24 AM 62.1°F16.7°C 56.5°F13.6°C 82% Calm Calm -- 30.04 in1017.3 mb 0.00 in0.0 mm 0.00 in0.0 mm 0.00 in0.0 mm
03:19 AM 62.4°F16.9°C 56.5°F13.6°C 81% 2.0 mph S3.2 kmh S 2.2 mph3.5 kmh 30.04 in1017.3 mb 0.00 in0.0 mm 0.00 in0.0 mm 0.00 in0.0 mm
03:14 AM 62.4°F16.9°C 56.5°F13.6°C 81% Calm Calm -- 30.04 in1017.3 mb 0.00 in0.0 mm 0.00 in0.0 mm 0.00 in0.0 mm
03:09 AM 62.8°F17.1°C 56.5°F13.6°C 80% 0.9 mph S1.4 kmh S 1.1 mph1.8 kmh 30.04 in1017.3 mb 0.00 in0.0 mm 0.00 in0.0 mm 0.00 in0.0 mm
03:04 AM 63.0°F17.2°C 56.7°F13.7°C 80% 0.2 mph S0.3 kmh S 1.1 mph1.8 kmh 30.04 in1017.3 mb 0.00 in0.0 mm 0.00 in0.0 mm 0.00 in0.0 mm
02:59 AM 63.1°F17.3°C 56.8°F13.8°C 80% 0.7 mph SE1.1 kmh SE 2.2 mph3.5 kmh 30.04 in1017.3 mb 0.00 in0.0 mm 0.00 in0.0 mm 0.00 in0.0 mm
02:54 AM 63.3°F17.4°C 57.0°F13.9°C 80% 0.7 mph S1.1 kmh S 1.1 mph1.8 kmh 30.04 in1017.3 mb 0.00 in0.0 mm 0.00 in0.0 mm 0.00 in0.0 mm
02:49 AM 63.5°F17.5°C 57.2°F14.0°C 80% 2.2 mph SE3.5 kmh SE 3.4 mph5.5 kmh 30.04 in1017.3 mb 0.00 in0.0 mm 0.00 in0.0 mm 0.00 in0.0 mm
02:44 AM 63.5°F17.5°C 56.8°F13.8°C 79% 2.9 mph SE4.7 kmh SE 3.4 mph5.5 kmh 30.04 in1017.3 mb 0.00 in0.0 mm 0.00 in0.0 mm 0.00 in0.0 mm
02:39 AM 63.7°F17.6°C 57.4°F14.1°C 80% 0.2 mph S0.3 kmh S 1.1 mph1.8 kmh 30.04 in1017.3 mb 0.00 in0.0 mm 0.00 in0.0 mm 0.00 in0.0 mm
02:34 AM 63.9°F17.7°C 57.2°F14.0°C 79% 0.2 mph SSE0.3 kmh SSE 1.1 mph1.8 kmh 30.04 in1017.3 mb 0.00 in0.0 mm 0.00 in0.0 mm 0.00 in0.0 mm
02:29 AM 63.9°F17.7°C 57.2°F14.0°C 79% 2.7 mph S4.3 kmh S 3.4 mph5.5 kmh 30.05 in1017.6 mb 0.00 in0.0 mm 0.00 in0.0 mm 0.00 in0.0 mm
02:24 AM 63.9°F17.7°C 57.2°F14.0°C 79% 2.0 mph E3.2 kmh E 2.2 mph3.5 kmh 30.05 in1017.6 mb 0.00 in0.0 mm 0.00 in0.0 mm 0.00 in0.0 mm
02:19 AM 64.0°F17.8°C 57.4°F14.1°C 79% 3.4 mph SE5.5 kmh SE 5.8 mph9.3 kmh 30.04 in1017.3 mb 0.00 in0.0 mm 0.00 in0.0 mm 0.00 in0.0 mm
02:14 AM 64.2°F17.9°C 57.6°F14.2°C 79% 2.9 mph S4.7 kmh S 3.4 mph5.5 kmh 30.04 in1017.3 mb 0.00 in0.0 mm 0.00 in0.0 mm 0.00 in0.0 mm
02:09 AM 64.0°F17.8°C 57.4°F14.1°C 79% 1.3 mph SSW2.1 kmh SSW 2.2 mph3.5 kmh 30.05 in1017.6 mb 0.00 in0.0 mm 0.00 in0.0 mm 0.00 in0.0 mm
02:04 AM 64.4°F18.0°C 58.1°F14.5°C 80% 0.2 mph SSE0.3 kmh SSE 1.1 mph1.8 kmh 30.06 in1017.9 mb 0.00 in0.0 mm 0.00 in0.0 mm 0.00 in0.0 mm
01:59 AM 64.2°F17.9°C 57.6°F14.2°C 79% 3.1 mph SE5.0 kmh SE 3.4 mph5.5 kmh 30.05 in1017.6 mb 0.00 in0.0 mm 0.00 in0.0 mm 0.00 in0.0 mm
01:54 AM 64.4°F18.0°C 57.7°F14.3°C 79% 2.0 mph SSE3.2 kmh SSE 2.2 mph3.5 kmh 30.06 in1017.9 mb 0.00 in0.0 mm 0.00 in0.0 mm 0.00 in0.0 mm
01:49 AM 64.8°F18.2°C 57.7°F14.3°C 78% 1.1 mph S1.8 kmh S 2.2 mph3.5 kmh 30.05 in1017.6 mb 0.00 in0.0 mm 0.00 in0.0 mm 0.00 in0.0 mm
01:44 AM 64.9°F18.3°C 57.9°F14.4°C 78% 2.9 mph SSE4.7 kmh SSE 3.4 mph5.5 kmh 30.05 in1017.6 mb 0.00 in0.0 mm 0.00 in0.0 mm 0.00 in0.0 mm
01:39 AM 65.1°F18.4°C 57.7°F14.3°C 77% 3.6 mph SSE5.8 kmh SSE 4.5 mph7.2 kmh 30.06 in1017.9 mb 0.00 in0.0 mm 0.00 in0.0 mm 0.00 in0.0 mm
01:34 AM 65.5°F18.6°C 58.1°F14.5°C 77% 1.1 mph SE1.8 kmh SE 2.2 mph3.5 kmh 30.06 in1017.9 mb 0.00 in0.0 mm 0.00 in0.0 mm 0.00 in0.0 mm
01:29 AM 65.7°F18.7°C 57.9°F14.4°C 76% 2.2 mph SE3.5 kmh SE 2.2 mph3.5 kmh 30.05 in1017.6 mb 0.00 in0.0 mm 0.00 in0.0 mm 0.00 in0.0 mm
01:24 AM 65.8°F18.8°C 58.1°F14.5°C 76% 2.2 mph SE3.5 kmh SE 3.4 mph5.5 kmh 30.06 in1017.9 mb 0.00 in0.0 mm 0.00 in0.0 mm 0.00 in0.0 mm
01:19 AM 66.0°F18.9°C 58.3°F14.6°C 76% 1.1 mph SE1.8 kmh SE 1.1 mph1.8 kmh 30.06 in1017.9 mb 0.00 in0.0 mm 0.00 in0.0 mm 0.00 in0.0 mm
01:14 AM 66.0°F18.9°C 58.3°F14.6°C 76% 2.2 mph SE3.5 kmh SE 2.2 mph3.5 kmh 30.06 in1017.9 mb 0.00 in0.0 mm 0.00 in0.0 mm 0.00 in0.0 mm
01:09 AM 66.2°F19.0°C 58.1°F14.5°C 75% 5.4 mph SE8.7 kmh SE 6.9 mph11.1 kmh 30.06 in1017.9 mb 0.00 in0.0 mm 0.00 in0.0 mm 0.00 in0.0 mm
01:04 AM 66.4°F19.1°C 58.3°F14.6°C 75% 5.6 mph ESE9.0 kmh ESE 6.9 mph11.1 kmh 30.05 in1017.6 mb 0.00 in0.0 mm 0.00 in0.0 mm 0.00 in0.0 mm
12:59 AM 66.6°F19.2°C 58.5°F14.7°C 75% 4.0 mph S6.4 kmh S 5.8 mph9.3 kmh 30.07 in1018.3 mb 0.00 in0.0 mm 0.00 in0.0 mm 0.00 in0.0 mm
12:54 AM 66.6°F19.2°C 58.5°F14.7°C 75% 3.4 mph S5.5 kmh S 3.4 mph5.5 kmh 30.06 in1017.9 mb 0.00 in0.0 mm 0.00 in0.0 mm 0.00 in0.0 mm
12:49 AM 66.6°F19.2°C 58.5°F14.7°C 75% 2.9 mph SE4.7 kmh SE 4.5 mph7.2 kmh 30.06 in1017.9 mb 0.00 in0.0 mm 0.00 in0.0 mm 0.00 in0.0 mm
12:44 AM 66.7°F19.3°C 58.6°F14.8°C 75% 2.7 mph SE4.3 kmh SE 3.4 mph5.5 kmh 30.06 in1017.9 mb 0.00 in0.0 mm 0.00 in0.0 mm 0.00 in0.0 mm
12:39 AM 66.9°F19.4°C 58.8°F14.9°C 75% 3.1 mph ESE5.0 kmh ESE 3.4 mph5.5 kmh 30.06 in1017.9 mb 0.00 in0.0 mm 0.00 in0.0 mm 0.00 in0.0 mm
12:34 AM 66.9°F19.4°C 58.8°F14.9°C 75% 2.0 mph SE3.2 kmh SE 3.4 mph5.5 kmh 30.06 in1017.9 mb 0.00 in0.0 mm 0.00 in0.0 mm 0.00 in0.0 mm
12:29 AM 66.9°F19.4°C 58.8°F14.9°C 75% 2.5 mph ESE4.0 kmh ESE 4.5 mph7.2 kmh 30.06 in1017.9 mb 0.00 in0.0 mm 0.00 in0.0 mm 0.00 in0.0 mm
12:24 AM 67.1°F19.5°C 59.0°F15.0°C 75% 2.2 mph SE3.5 kmh SE 3.4 mph5.5 kmh 30.06 in1017.9 mb 0.00 in0.0 mm 0.00 in0.0 mm 0.00 in0.0 mm
12:19 AM 67.1°F19.5°C 59.0°F15.0°C 75% 2.2 mph SE3.5 kmh SE 3.4 mph5.5 kmh 30.06 in1017.9 mb 0.00 in0.0 mm 0.00 in0.0 mm 0.00 in0.0 mm
12:14 AM 67.1°F19.5°C 59.0°F15.0°C 75% 3.4 mph SE5.5 kmh SE 4.5 mph7.2 kmh 30.06 in1017.9 mb 0.00 in0.0 mm 0.00 in0.0 mm 0.00 in0.0 mm
12:09 AM 67.1°F19.5°C 59.0°F15.0°C 75% 4.5 mph ENE7.2 kmh ENE 6.9 mph11.1 kmh 30.06 in1017.9 mb 0.00 in0.0 mm 0.00 in0.0 mm 0.00 in0.0 mm
12:04 AM 67.1°F19.5°C 59.0°F15.0°C 75% 2.5 mph ESE4.0 kmh ESE 3.4 mph5.5 kmh 30.05 in1017.6 mb 0.00 in0.0 mm 0.00 in0.0 mm 0.00 in0.0 mm